Time;durP1;ratioP1;P1;durP2;ratioP2;P2;SDS_P1;SDS_P2;PMS_P1;PMS_P2;Temp;Humidity;BMP_temperature;BMP_pressure;BME280_temperature;BME280_humidity;BME280_pressure;Samples;Min_cycle;Max_cycle;Signal;HPM_P1;HPM_P2
2022/03/28 00:01:11;;;;;;;10.52;4.82;;;;;;;;;;4924355;29;20035;-81
2022/03/28 00:03:37;;;;;;;8.60;3.80;;;;;;;;;;4924584;29;20038;-81
2022/03/28 00:06:04;;;;;;;10.57;4.70;;;;;;;;;;4926738;28;20027;-80
2022/03/28 00:08:30;;;;;;;8.10;4.22;;;;;;;;;;4940630;28;20030;-81
2022/03/28 00:10:56;;;;;;;11.88;4.68;;;;;;;;;;4944638;28;20391;-81
2022/03/28 00:13:22;;;;;;;7.80;4.50;;;;;;;;;;4924475;28;20042;-81
2022/03/28 00:15:49;;;;;;;10.65;3.85;;;;;;;;;;4928662;28;20258;-81
2022/03/28 00:18:15;;;;;;;9.35;3.85;;;;;;;;;;4928128;28;20026;-80
2022/03/28 00:20:41;;;;;;;6.35;4.05;;;;;;;;;;4941091;28;20479;-81
2022/03/28 00:23:07;;;;;;;9.60;4.15;;;;;;;;;;4931434;28;20126;-81
2022/03/28 00:25:35;;;;;;;9.95;4.22;;;;;;;;;;4940122;28;20364;-80
2022/03/28 00:28:01;;;;;;;9.80;4.07;;;;;;;;;;4931519;29;20555;-81
2022/03/28 00:30:28;;;;;;;8.88;4.18;;;;;;;;;;4926714;29;20499;-81
2022/03/28 00:32:54;;;;;;;6.47;4.28;;;;;;;;;;4925020;29;20023;-81
2022/03/28 00:35:22;;;;;;;13.70;4.18;;;;;;;;;;4943439;28;20148;-81
2022/03/28 00:37:48;;;;;;;11.02;4.60;;;;;;;;;;4935489;28;20031;-81
2022/03/28 00:40:16;;;;;;;15.30;3.92;;;;;;;;;;4945222;28;20035;-81
2022/03/28 00:42:43;;;;;;;16.55;4.60;;;;;;;;;;4930323;29;20677;-81
2022/03/28 00:45:10;;;;;;;14.07;3.83;;;;;;;;;;4941150;28;20541;-81
2022/03/28 00:47:36;;;;;;;11.13;3.90;;;;;;;;;;4948416;28;20055;-81
2022/03/28 00:50:02;;;;;;;7.45;3.70;;;;;;;;;;4945481;28;20541;-81
2022/03/28 00:52:28;;;;;;;10.70;3.42;;;;;;;;;;4924930;29;20031;-81
2022/03/28 00:54:55;;;;;;;7.50;3.30;;;;;;;;;;4940663;28;20039;-81
2022/03/28 00:57:21;;;;;;;8.07;3.58;;;;;;;;;;4948324;28;20023;-81
2022/03/28 00:59:47;;;;;;;14.15;4.45;;;;;;;;;;4939283;28;20043;-81
2022/03/28 01:02:13;;;;;;;6.15;3.25;;;;;;;;;;4943099;28;20035;-80
2022/03/28 01:04:39;;;;;;;8.82;3.75;;;;;;;;;;4925612;29;20034;-81
2022/03/28 01:07:07;;;;;;;6.18;3.80;;;;;;;;;;4937055;28;20039;-81
2022/03/28 01:09:33;;;;;;;8.32;3.60;;;;;;;;;;4935431;28;20039;-81
2022/03/28 01:12:00;;;;;;;8.52;3.28;;;;;;;;;;4944644;28;20039;-81
2022/03/28 01:14:27;;;;;;;4.90;3.22;;;;;;;;;;4940288;28;20031;-81
2022/03/28 01:19:37;;;;;;;8.82;3.58;;;;;;;;;;4938921;28;21323;-80
2022/03/28 01:22:04;;;;;;;10.18;3.85;;;;;;;;;;4941204;28;20039;-80
2022/03/28 01:24:31;;;;;;;7.38;3.92;;;;;;;;;;4939146;28;20087;-81
2022/03/28 01:26:58;;;;;;;11.50;4.03;;;;;;;;;;4929382;29;20040;-81
2022/03/28 01:29:25;;;;;;;12.05;4.70;;;;;;;;;;4943992;28;20066;-81
2022/03/28 01:31:51;;;;;;;12.35;4.05;;;;;;;;;;4947731;28;20479;-81
2022/03/28 01:34:17;;;;;;;12.90;4.38;;;;;;;;;;4932722;28;20041;-81
2022/03/28 01:36:47;;;;;;;6.80;3.90;;;;;;;;;;4949914;28;20494;-81
2022/03/28 01:39:17;;;;;;;11.93;4.10;;;;;;;;;;4938663;28;20027;-81
2022/03/28 01:41:43;;;;;;;9.05;4.72;;;;;;;;;;4941888;28;20036;-81
2022/03/28 01:44:09;;;;;;;10.40;5.07;;;;;;;;;;4942929;28;20030;-81
2022/03/28 01:46:44;;;;;;;17.73;5.03;;;;;;;;;;4935339;28;20060;-81
2022/03/28 01:49:10;;;;;;;8.27;5.05;;;;;;;;;;4909342;29;20087;-81
2022/03/28 01:51:36;;;;;;;11.15;4.60;;;;;;;;;;4920949;29;20035;-82
2022/03/28 01:54:02;;;;;;;14.60;5.53;;;;;;;;;;4912276;29;20042;-81
2022/03/28 01:56:29;;;;;;;9.25;4.30;;;;;;;;;;4908052;29;20056;-81
2022/03/28 01:58:55;;;;;;;10.82;4.35;;;;;;;;;;4905071;29;20565;-82
2022/03/28 02:01:21;;;;;;;10.07;4.07;;;;;;;;;;4911813;29;20115;-81
2022/03/28 02:03:47;;;;;;;13.00;4.93;;;;;;;;;;4931824;29;20036;-81
2022/03/28 02:06:13;;;;;;;14.50;4.40;;;;;;;;;;4911584;29;20043;-81
2022/03/28 02:08:40;;;;;;;12.77;5.10;;;;;;;;;;4909416;29;20602;-81
2022/03/28 02:11:06;;;;;;;8.70;3.90;;;;;;;;;;4922890;29;20424;-81
2022/03/28 02:13:32;;;;;;;11.35;4.50;;;;;;;;;;4914713;29;20054;-81
2022/03/28 02:16:00;;;;;;;12.80;4.93;;;;;;;;;;4929498;29;20103;-81
2022/03/28 02:18:26;;;;;;;9.27;4.28;;;;;;;;;;4909850;29;20451;-80
2022/03/28 02:20:52;;;;;;;6.00;3.83;;;;;;;;;;4914398;29;20047;-81
2022/03/28 02:23:18;;;;;;;10.27;3.92;;;;;;;;;;4926660;29;20122;-80
2022/03/28 02:25:44;;;;;;;9.27;4.72;;;;;;;;;;4905952;29;20075;-80
2022/03/28 02:28:11;;;;;;;10.90;4.63;;;;;;;;;;4907637;29;20039;-81
2022/03/28 02:30:37;;;;;;;13.07;4.82;;;;;;;;;;4911972;29;20060;-81
2022/03/28 02:33:04;;;;;;;9.23;5.25;;;;;;;;;;4910580;29;20036;-80
2022/03/28 02:35:30;;;;;;;9.77;5.18;;;;;;;;;;4929446;29;20533;-81
2022/03/28 02:38:01;;;;;;;7.95;4.68;;;;;;;;;;4912244;29;20058;-80
2022/03/28 02:40:30;;;;;;;7.97;4.25;;;;;;;;;;4926013;29;20031;-81
2022/03/28 02:42:57;;;;;;;10.57;5.13;;;;;;;;;;4929700;29;20036;-80
2022/03/28 02:45:24;;;;;;;8.82;4.40;;;;;;;;;;4925121;29;20035;-81
2022/03/28 02:47:50;;;;;;;8.85;4.47;;;;;;;;;;4929300;28;20122;-81
2022/03/28 02:50:16;;;;;;;10.02;3.47;;;;;;;;;;4921490;29;20031;-81
2022/03/28 02:52:42;;;;;;;8.45;4.30;;;;;;;;;;4939210;28;20050;-81
2022/03/28 02:55:08;;;;;;;13.18;4.78;;;;;;;;;;4930160;29;20392;-80
2022/03/28 02:57:35;;;;;;;12.40;4.88;;;;;;;;;;4943085;28;20078;-80
2022/03/28 03:00:01;;;;;;;9.80;4.90;;;;;;;;;;4946159;28;20050;-80
2022/03/28 03:02:27;;;;;;;10.07;5.13;;;;;;;;;;4947010;28;20023;-81
2022/03/28 03:04:53;;;;;;;8.55;4.10;;;;;;;;;;4931182;28;20035;-81
2022/03/28 03:07:19;;;;;;;8.05;4.22;;;;;;;;;;4930413;29;20061;-80
2022/03/28 03:09:45;;;;;;;8.35;4.50;;;;;;;;;;4929392;29;20042;-79
2022/03/28 03:12:11;;;;;;;9.40;4.07;;;;;;;;;;4949501;28;20049;-81
2022/03/28 03:14:37;;;;;;;9.82;4.25;;;;;;;;;;4921772;28;20031;-80
2022/03/28 03:17:04;;;;;;;9.70;3.67;;;;;;;;;;4946525;28;20035;-80
2022/03/28 03:19:30;;;;;;;7.55;3.83;;;;;;;;;;4952095;28;20045;-81
2022/03/28 03:22:02;;;;;;;10.35;4.20;;;;;;;;;;4929814;28;20486;-81
2022/03/28 03:24:28;;;;;;;9.40;4.60;;;;;;;;;;4944299;28;20490;-81
2022/03/28 03:26:54;;;;;;;7.85;4.47;;;;;;;;;;4919795;28;20494;-81
2022/03/28 03:29:20;;;;;;;11.70;5.10;;;;;;;;;;4949461;28;20114;-81
2022/03/28 03:31:47;;;;;;;8.65;5.05;;;;;;;;;;4927804;29;20038;-82
2022/03/28 03:34:13;;;;;;;9.32;4.28;;;;;;;;;;4931470;28;20039;-80
2022/03/28 03:36:45;;;;;;;7.20;3.90;;;;;;;;;;4929028;29;20541;-81
2022/03/28 03:39:22;;;;;;;7.65;4.15;;;;;;;;;;4924905;29;20055;-81
2022/03/28 03:41:48;;;;;;;7.65;2.95;;;;;;;;;;4929888;29;20027;-81
2022/03/28 03:44:14;;;;;;;5.85;2.90;;;;;;;;;;4926617;29;20470;-81
2022/03/28 03:46:53;;;;;;;5.68;2.78;;;;;;;;;;4931417;28;20861;-81
2022/03/28 03:49:19;;;;;;;4.65;2.20;;;;;;;;;;4906916;29;20044;-81
2022/03/28 03:51:46;;;;;;;8.15;3.30;;;;;;;;;;4924088;29;20044;-81
2022/03/28 03:54:13;;;;;;;5.28;2.65;;;;;;;;;;4928603;29;20044;-81
2022/03/28 03:56:39;;;;;;;7.13;2.80;;;;;;;;;;4910961;29;20766;-81
2022/03/28 03:59:05;;;;;;;6.07;2.63;;;;;;;;;;4907174;29;20048;-81
2022/03/28 04:01:31;;;;;;;5.10;2.25;;;;;;;;;;4906706;29;21054;-81
2022/03/28 04:03:57;;;;;;;4.72;1.88;;;;;;;;;;4909415;29;20028;-80
2022/03/28 04:06:23;;;;;;;3.08;1.67;;;;;;;;;;4914475;29;20055;-82
2022/03/28 04:08:49;;;;;;;3.50;1.95;;;;;;;;;;4913572;29;20517;-81
2022/03/28 04:11:15;;;;;;;3.03;1.85;;;;;;;;;;4913892;29;20023;-82
2022/03/28 04:13:42;;;;;;;3.40;1.73;;;;;;;;;;4904623;29;20074;-82
2022/03/28 04:16:08;;;;;;;2.92;1.75;;;;;;;;;;4898751;29;20027;-81
2022/03/28 04:18:35;;;;;;;2.72;1.55;;;;;;;;;;4902135;29;20594;-81
2022/03/28 04:21:01;;;;;;;7.97;1.73;;;;;;;;;;4912347;29;20063;-81
2022/03/28 04:23:27;;;;;;;2.20;1.27;;;;;;;;;;4918054;29;20559;-82
2022/03/28 04:25:53;;;;;;;2.80;1.73;;;;;;;;;;4908813;29;20575;-82
2022/03/28 04:28:19;;;;;;;3.10;1.70;;;;;;;;;;4912943;29;21538;-82
2022/03/28 04:30:45;;;;;;;3.50;1.83;;;;;;;;;;4927857;29;20035;-81
2022/03/28 04:33:11;;;;;;;4.40;2.17;;;;;;;;;;4924168;29;20039;-82
2022/03/28 04:35:39;;;;;;;3.88;2.38;;;;;;;;;;4920402;29;20050;-81
2022/03/28 04:38:06;;;;;;;4.28;2.30;;;;;;;;;;4924495;29;20028;-81
2022/03/28 04:40:33;;;;;;;4.38;2.55;;;;;;;;;;4908276;29;20031;-82
2022/03/28 04:42:59;;;;;;;4.70;2.50;;;;;;;;;;4913034;29;20529;-82
2022/03/28 04:45:25;;;;;;;6.18;3.08;;;;;;;;;;4923203;29;20032;-81
2022/03/28 04:48:05;;;;;;;6.07;2.85;;;;;;;;;;4925489;28;20517;-82
2022/03/28 04:50:31;;;;;;;8.50;3.47;;;;;;;;;;4922369;28;20039;-81
2022/03/28 04:52:57;;;;;;;6.43;3.05;;;;;;;;;;4937804;28;20070;-81
2022/03/28 04:55:23;;;;;;;8.18;4.00;;;;;;;;;;4929385;29;20451;-81
2022/03/28 04:57:50;;;;;;;9.55;3.28;;;;;;;;;;4941192;28;20126;-82
2022/03/28 05:00:17;;;;;;;9.60;3.97;;;;;;;;;;4928937;29;20043;-82
2022/03/28 05:02:43;;;;;;;10.25;4.88;;;;;;;;;;4927247;28;20031;-82
2022/03/28 05:05:09;;;;;;;9.05;4.25;;;;;;;;;;4944762;28;20777;-81
2022/03/28 05:07:36;;;;;;;9.25;5.05;;;;;;;;;;4943669;28;20034;-81
2022/03/28 05:10:02;;;;;;;11.05;5.20;;;;;;;;;;4940174;28;20511;-81
2022/03/28 05:12:28;;;;;;;17.60;5.82;;;;;;;;;;4933786;29;20578;-82
2022/03/28 05:14:55;;;;;;;12.60;6.00;;;;;;;;;;4929710;29;20039;-81
2022/03/28 05:17:22;;;;;;;14.57;6.22;;;;;;;;;;4927843;28;20089;-81
2022/03/28 05:19:49;;;;;;;15.10;6.38;;;;;;;;;;4929685;29;20827;-82
2022/03/28 05:22:15;;;;;;;10.82;6.00;;;;;;;;;;4944824;28;20035;-82
2022/03/28 05:24:41;;;;;;;11.70;5.30;;;;;;;;;;4942067;28;20023;-81
2022/03/28 05:27:07;;;;;;;12.43;5.80;;;;;;;;;;4939072;28;20034;-82
2022/03/28 05:29:33;;;;;;;11.60;5.05;;;;;;;;;;4924727;29;20039;-81
2022/03/28 05:31:59;;;;;;;9.70;4.95;;;;;;;;;;4926019;29;20118;-81
2022/03/28 05:34:25;;;;;;;11.23;5.47;;;;;;;;;;4923963;28;20027;-81
2022/03/28 05:36:51;;;;;;;12.23;6.28;;;;;;;;;;4940470;28;20522;-81
2022/03/28 05:39:17;;;;;;;13.80;6.30;;;;;;;;;;4944040;28;20090;-81
2022/03/28 05:41:43;;;;;;;13.23;6.15;;;;;;;;;;4928231;29;20106;-81
2022/03/28 05:44:09;;;;;;;15.20;6.47;;;;;;;;;;4927092;28;20032;-81
2022/03/28 05:46:35;;;;;;;15.25;5.85;;;;;;;;;;4940599;28;20031;-80
2022/03/28 05:49:01;;;;;;;16.55;7.07;;;;;;;;;;4940402;28;20129;-80
2022/03/28 05:51:27;;;;;;;11.60;6.03;;;;;;;;;;4950921;28;20498;-81
2022/03/28 05:53:53;;;;;;;14.38;6.97;;;;;;;;;;4927417;29;20035;-80
2022/03/28 05:56:19;;;;;;;14.52;6.32;;;;;;;;;;4948052;28;20039;-80
2022/03/28 05:58:45;;;;;;;13.90;6.63;;;;;;;;;;4923384;29;20495;-81
2022/03/28 06:01:11;;;;;;;14.18;6.20;;;;;;;;;;4929757;28;22073;-80
2022/03/28 06:03:38;;;;;;;19.30;7.43;;;;;;;;;;4928850;29;20122;-80
2022/03/28 06:06:04;;;;;;;18.05;7.88;;;;;;;;;;4930703;28;20051;-81
2022/03/28 06:08:30;;;;;;;19.45;8.70;;;;;;;;;;4930690;29;20038;-80
2022/03/28 06:10:56;;;;;;;20.65;9.27;;;;;;;;;;4940758;28;20039;-79
2022/03/28 06:13:22;;;;;;;22.35;10.63;;;;;;;;;;4924677;29;20082;-79
2022/03/28 06:15:49;;;;;;;30.45;12.63;;;;;;;;;;4931093;29;20058;-81
2022/03/28 06:18:15;;;;;;;27.60;12.90;;;;;;;;;;4936685;28;20106;-81
2022/03/28 06:20:42;;;;;;;28.90;12.43;;;;;;;;;;4935640;29;20051;-80
2022/03/28 06:23:09;;;;;;;27.38;13.43;;;;;;;;;;4936342;28;20023;-80
2022/03/28 06:25:35;;;;;;;33.28;14.55;;;;;;;;;;4948856;28;20031;-80
2022/03/28 06:28:01;;;;;;;28.77;14.02;;;;;;;;;;4946860;28;20046;-80
2022/03/28 06:30:30;;;;;;;32.88;12.15;;;;;;;;;;4933236;29;20055;-80
2022/03/28 06:32:56;;;;;;;18.48;10.02;;;;;;;;;;4951817;28;20131;-80
2022/03/28 06:35:22;;;;;;;18.38;9.48;;;;;;;;;;4949865;28;20487;-81
2022/03/28 06:37:53;;;;;;;20.00;9.18;;;;;;;;;;4937069;29;20387;-80
2022/03/28 06:40:19;;;;;;;23.00;11.02;;;;;;;;;;4939069;29;20039;-80
2022/03/28 06:42:45;;;;;;;23.00;11.48;;;;;;;;;;4929790;28;20535;-80
2022/03/28 06:45:12;;;;;;;20.75;9.70;;;;;;;;;;4950678;28;20035;-80
2022/03/28 06:47:39;;;;;;;27.67;11.63;;;;;;;;;;4936171;28;20431;-80
2022/03/28 06:50:06;;;;;;;25.35;11.80;;;;;;;;;;4938837;28;20099;-80
2022/03/28 06:52:33;;;;;;;27.58;13.80;;;;;;;;;;4948197;28;20039;-80
2022/03/28 06:54:59;;;;;;;36.15;14.25;;;;;;;;;;4943524;28;20465;-81
2022/03/28 06:57:26;;;;;;;28.75;13.63;;;;;;;;;;4944653;28;20106;-80
2022/03/28 06:59:53;;;;;;;30.48;13.90;;;;;;;;;;4943805;28;20039;-80
2022/03/28 07:02:19;;;;;;;27.00;13.55;;;;;;;;;;4944466;28;20028;-80
2022/03/28 07:04:45;;;;;;;31.70;14.75;;;;;;;;;;4943950;28;20075;-80
2022/03/28 07:07:11;;;;;;;36.80;15.45;;;;;;;;;;4934467;28;20037;-79
2022/03/28 07:09:38;;;;;;;36.45;15.90;;;;;;;;;;4942049;28;20495;-80
2022/03/28 07:12:05;;;;;;;41.22;15.75;;;;;;;;;;4946269;28;20043;-80
2022/03/28 07:14:32;;;;;;;34.28;15.30;;;;;;;;;;4943350;28;20027;-80
2022/03/28 07:16:59;;;;;;;34.50;15.95;;;;;;;;;;4942465;28;20035;-80
2022/03/28 07:19:25;;;;;;;32.75;14.60;;;;;;;;;;4947636;28;20034;-80
2022/03/28 07:21:51;;;;;;;38.35;16.83;;;;;;;;;;4950414;28;20086;-80
2022/03/28 07:24:17;;;;;;;36.20;17.05;;;;;;;;;;4945693;28;20471;-80
2022/03/28 07:26:45;;;;;;;42.92;19.35;;;;;;;;;;4939946;28;20073;-80
2022/03/28 07:29:11;;;;;;;42.67;17.95;;;;;;;;;;4948333;28;20038;-79
2022/03/28 07:31:39;;;;;;;41.78;19.73;;;;;;;;;;4941719;28;20034;-79
2022/03/28 07:36:54;;;;;;;31.00;14.73;;;;;;;;;;4949329;28;20179;-80
2022/03/28 07:39:20;;;;;;;32.08;15.23;;;;;;;;;;4937913;28;20046;-80
2022/03/28 07:41:47;;;;;;;32.40;16.23;;;;;;;;;;4929490;28;20398;-80
2022/03/28 07:44:13;;;;;;;28.98;15.15;;;;;;;;;;4929972;28;20364;-81
2022/03/28 07:46:40;;;;;;;31.60;16.08;;;;;;;;;;4933381;28;20156;-80
2022/03/28 07:49:13;;;;;;;36.95;16.85;;;;;;;;;;4945925;28;20055;-80
2022/03/28 07:51:39;;;;;;;27.83;13.90;;;;;;;;;;4932850;28;20050;-80
2022/03/28 07:54:05;;;;;;;30.08;15.35;;;;;;;;;;4944484;28;20042;-79
2022/03/28 07:56:31;;;;;;;31.63;15.30;;;;;;;;;;4929589;29;20035;-80
2022/03/28 07:58:58;;;;;;;28.42;14.23;;;;;;;;;;4942043;28;20447;-80
2022/03/28 08:01:24;;;;;;;15.68;8.88;;;;;;;;;;4945060;28;20027;-79
2022/03/28 08:03:50;;;;;;;15.07;7.45;;;;;;;;;;4948867;28;20037;-80
2022/03/28 08:06:16;;;;;;;14.30;7.93;;;;;;;;;;4944730;28;20031;-79
2022/03/28 08:08:42;;;;;;;15.85;8.30;;;;;;;;;;4945778;28;20435;-80
2022/03/28 08:11:09;;;;;;;16.35;8.55;;;;;;;;;;4947991;28;21065;-79
2022/03/28 08:13:35;;;;;;;17.35;9.23;;;;;;;;;;4947609;28;20059;-80
2022/03/28 08:16:02;;;;;;;19.70;9.43;;;;;;;;;;4945014;28;20054;-80
2022/03/28 08:18:28;;;;;;;15.30;8.90;;;;;;;;;;4925583;28;20035;-80
2022/03/28 08:20:54;;;;;;;21.85;9.30;;;;;;;;;;4925991;28;20031;-80
2022/03/28 08:23:21;;;;;;;20.20;10.70;;;;;;;;;;4931630;28;20126;-79
2022/03/28 08:25:47;;;;;;;21.02;10.73;;;;;;;;;;4948747;28;20499;-80
2022/03/28 08:28:21;;;;;;;24.90;11.65;;;;;;;;;;4934184;28;20562;-80
2022/03/28 08:30:47;;;;;;;29.08;12.35;;;;;;;;;;4940784;28;20027;-80
2022/03/28 08:33:13;;;;;;;23.98;11.82;;;;;;;;;;4944613;28;20110;-80
2022/03/28 08:35:40;;;;;;;22.85;11.25;;;;;;;;;;4940412;28;20074;-80
2022/03/28 08:38:07;;;;;;;22.48;11.38;;;;;;;;;;4937272;29;20035;-80
2022/03/28 08:40:33;;;;;;;24.27;10.32;;;;;;;;;;4930672;28;20027;-80
2022/03/28 08:43:00;;;;;;;20.23;10.88;;;;;;;;;;4946409;28;20074;-80
2022/03/28 08:45:26;;;;;;;22.90;10.65;;;;;;;;;;4943579;28;20593;-80
2022/03/28 08:47:54;;;;;;;21.60;11.60;;;;;;;;;;4937181;28;20603;-80
2022/03/28 08:50:20;;;;;;;20.08;11.23;;;;;;;;;;4949179;28;20081;-79
2022/03/28 08:52:46;;;;;;;23.27;11.80;;;;;;;;;;4942715;28;20035;-79
2022/03/28 08:55:14;;;;;;;21.52;11.63;;;;;;;;;;4925155;28;20177;-80
2022/03/28 08:57:40;;;;;;;22.40;10.55;;;;;;;;;;4941268;28;20042;-80
2022/03/28 09:00:09;;;;;;;22.48;10.65;;;;;;;;;;4945509;28;20102;-80
2022/03/28 09:02:39;;;;;;;18.92;11.23;;;;;;;;;;4925763;28;20027;-80
2022/03/28 09:05:05;;;;;;;16.08;10.38;;;;;;;;;;4931025;29;20035;-80
2022/03/28 09:07:31;;;;;;;20.90;11.50;;;;;;;;;;4948882;28;20050;-80
2022/03/28 09:10:01;;;;;;;20.65;10.75;;;;;;;;;;4929954;29;20122;-80
2022/03/28 09:12:27;;;;;;;23.15;11.85;;;;;;;;;;4941241;28;20114;-80
2022/03/28 09:14:58;;;;;;;17.13;9.32;;;;;;;;;;4944350;28;20039;-80
2022/03/28 09:17:25;;;;;;;20.55;11.05;;;;;;;;;;4928513;29;20432;-80
2022/03/28 09:19:55;;;;;;;21.92;12.45;;;;;;;;;;4925530;28;20126;-80
2022/03/28 09:22:29;;;;;;;21.50;10.43;;;;;;;;;;4945817;28;20466;-80
2022/03/28 09:25:00;;;;;;;22.55;11.77;;;;;;;;;;4928254;28;20499;-79
2022/03/28 09:27:28;;;;;;;20.75;11.90;;;;;;;;;;4926478;28;20035;-80
2022/03/28 09:29:58;;;;;;;20.05;11.32;;;;;;;;;;4942728;28;20031;-80
2022/03/28 09:32:25;;;;;;;31.70;12.65;;;;;;;;;;4946431;28;20487;-80
2022/03/28 09:35:01;;;;;;;20.77;11.55;;;;;;;;;;4944265;28;20905;-80
2022/03/28 09:37:28;;;;;;;18.10;11.32;;;;;;;;;;4923233;28;20031;-80
2022/03/28 09:39:54;;;;;;;24.48;11.32;;;;;;;;;;4937575;29;20031;-80
2022/03/28 09:42:20;;;;;;;21.00;11.48;;;;;;;;;;4939660;28;20031;-80
2022/03/28 09:44:48;;;;;;;19.65;11.70;;;;;;;;;;4946459;28;20495;-80
2022/03/28 09:47:19;;;;;;;19.98;10.85;;;;;;;;;;4947618;28;20040;-80
2022/03/28 09:49:46;;;;;;;20.45;10.65;;;;;;;;;;4920965;28;20499;-81
2022/03/28 09:52:13;;;;;;;25.38;11.45;;;;;;;;;;4925254;29;20103;-80
2022/03/28 09:54:59;;;;;;;23.33;12.00;;;;;;;;;;4935795;29;20032;-81
2022/03/28 09:57:26;;;;;;;19.23;10.80;;;;;;;;;;4931657;29;20035;-81
2022/03/28 09:59:53;;;;;;;22.42;11.05;;;;;;;;;;4914008;29;20043;-80
2022/03/28 10:02:24;;;;;;;20.30;11.73;;;;;;;;;;4929063;29;20039;-81
2022/03/28 10:04:51;;;;;;;22.77;11.13;;;;;;;;;;4930859;29;20032;-80
2022/03/28 10:07:18;;;;;;;23.05;11.43;;;;;;;;;;4935224;29;20607;-81
2022/03/28 10:09:44;;;;;;;17.60;10.90;;;;;;;;;;4930994;29;20611;-80
2022/03/28 10:12:10;;;;;;;19.58;11.35;;;;;;;;;;4933193;29;20517;-79
2022/03/28 10:14:37;;;;;;;19.90;11.73;;;;;;;;;;4935339;29;20039;-80
2022/03/28 10:17:03;;;;;;;19.42;11.45;;;;;;;;;;4934079;29;20031;-80
2022/03/28 10:19:34;;;;;;;18.20;9.77;;;;;;;;;;4930235;29;20635;-80
2022/03/28 10:22:02;;;;;;;19.88;11.27;;;;;;;;;;4929947;29;20435;-80
2022/03/28 10:24:29;;;;;;;19.70;11.68;;;;;;;;;;4934737;29;20499;-80
2022/03/28 10:26:57;;;;;;;20.65;12.00;;;;;;;;;;4935987;29;20056;-80
2022/03/28 10:29:33;;;;;;;30.25;12.15;;;;;;;;;;4915307;29;20047;-80
2022/03/28 10:32:00;;;;;;;18.17;10.85;;;;;;;;;;4932246;29;20187;-80
2022/03/28 10:35:01;;;;;;;23.77;11.27;;;;;;;;;;4938735;29;20050;-80
2022/03/28 10:37:29;;;;;;;20.98;11.23;;;;;;;;;;4928121;29;20629;-80
2022/03/28 10:40:14;;;;;;;17.30;10.90;;;;;;;;;;4934955;29;20130;-80
2022/03/28 10:42:55;;;;;;;22.38;10.65;;;;;;;;;;4928068;29;20027;-80
2022/03/28 10:45:22;;;;;;;21.25;10.35;;;;;;;;;;4915587;29;20373;-80
2022/03/28 10:47:55;;;;;;;19.88;10.57;;;;;;;;;;4937127;29;20331;-80
2022/03/28 10:50:25;;;;;;;20.17;10.93;;;;;;;;;;4946336;28;20519;-82
2022/03/28 10:53:08;;;;;;;19.05;10.85;;;;;;;;;;4925332;29;20036;-82
2022/03/28 10:55:42;;;;;;;24.17;11.88;;;;;;;;;;4926964;29;20130;-82
2022/03/28 10:58:12;;;;;;;23.00;11.90;;;;;;;;;;4942664;28;20791;-82
2022/03/28 11:00:38;;;;;;;17.30;11.05;;;;;;;;;;4927839;29;20130;-82
2022/03/28 11:03:04;;;;;;;22.30;11.38;;;;;;;;;;4925740;28;20032;-82
2022/03/28 11:05:50;;;;;;;17.73;11.13;;;;;;;;;;4927219;29;20117;-82
2022/03/28 11:08:39;;;;;;;19.10;10.90;;;;;;;;;;4934826;29;20063;-80
2022/03/28 11:11:25;;;;;;;20.70;10.95;;;;;;;;;;4922871;28;20049;-80
2022/03/28 11:14:17;;;;;;;19.77;10.63;;;;;;;;;;4943824;28;20082;-80
2022/03/28 11:16:53;;;;;;;19.52;12.18;;;;;;;;;;4924449;28;20043;-80
2022/03/28 11:19:29;;;;;;;24.52;11.18;;;;;;;;;;4928868;28;20028;-80
2022/03/28 11:21:55;;;;;;;;;;;;;;;;;;4947325;28;20037;-80
2022/03/28 11:24:40;;;;;;;21.65;11.13;;;;;;;;;;4944437;28;19911;-80
2022/03/28 11:27:06;;;;;;;19.10;11.48;;;;;;;;;;4942448;28;20035;-80
2022/03/28 11:29:32;;;;;;;19.90;10.82;;;;;;;;;;4946800;28;20040;-80
2022/03/28 11:32:04;;;;;;;18.35;10.57;;;;;;;;;;4936858;28;20053;-80
2022/03/28 11:34:30;;;;;;;20.02;10.55;;;;;;;;;;4943084;28;20039;-80
2022/03/28 11:37:01;;;;;;;20.35;10.70;;;;;;;;;;4942777;28;20091;-79
2022/03/28 11:39:27;;;;;;;18.80;11.60;;;;;;;;;;4943891;28;20105;-80
2022/03/28 11:41:54;;;;;;;18.38;11.18;;;;;;;;;;4927844;28;20494;-80
2022/03/28 11:44:21;;;;;;;16.50;9.90;;;;;;;;;;4927205;28;20039;-80
2022/03/28 11:46:57;;;;;;;17.17;11.05;;;;;;;;;;4928788;28;20047;-80
2022/03/28 11:49:36;;;;;;;16.63;10.48;;;;;;;;;;4943851;28;20114;-81
2022/03/28 11:52:04;;;;;;;19.73;10.85;;;;;;;;;;4941528;28;20027;-80
2022/03/28 11:54:30;;;;;;;19.20;10.43;;;;;;;;;;4931031;29;20039;-81
2022/03/28 11:59:42;;;;;;;15.15;10.38;;;;;;;;;;4942872;28;20078;-81
2022/03/28 12:02:08;;;;;;;19.67;10.93;;;;;;;;;;4943129;28;20038;-80
2022/03/28 12:04:35;;;;;;;17.65;11.27;;;;;;;;;;4928819;29;20032;-80
2022/03/28 12:07:02;;;;;;;22.63;12.43;;;;;;;;;;4924537;28;20414;-81
2022/03/28 12:09:28;;;;;;;17.42;11.30;;;;;;;;;;4943159;28;20042;-80
2022/03/28 12:11:55;;;;;;;17.48;10.48;;;;;;;;;;4947450;28;20086;-81
2022/03/28 12:14:22;;;;;;;16.98;10.38;;;;;;;;;;4930594;29;20035;-81
2022/03/28 12:16:56;;;;;;;24.00;10.68;;;;;;;;;;4929914;28;20089;-81
2022/03/28 12:19:24;;;;;;;19.02;11.38;;;;;;;;;;4941319;28;20625;-81
2022/03/28 12:21:51;;;;;;;15.18;10.85;;;;;;;;;;4941505;28;20533;-80
2022/03/28 12:24:18;;;;;;;17.60;10.82;;;;;;;;;;4946043;28;20098;-81
2022/03/28 12:26:44;;;;;;;15.68;9.98;;;;;;;;;;4941313;28;20122;-81
2022/03/28 12:29:11;;;;;;;21.73;10.52;;;;;;;;;;4946446;28;20039;-81
2022/03/28 12:31:37;;;;;;;24.90;10.55;;;;;;;;;;4941700;28;20158;-80
2022/03/28 12:34:04;;;;;;;18.05;10.30;;;;;;;;;;4948613;28;20035;-80
2022/03/28 12:36:30;;;;;;;17.83;9.75;;;;;;;;;;4923217;28;20428;-80
2022/03/28 12:38:57;;;;;;;20.77;10.95;;;;;;;;;;4939744;28;20066;-81
2022/03/28 12:41:26;;;;;;;17.13;9.38;;;;;;;;;;4932761;28;20058;-79
2022/03/28 12:43:53;;;;;;;14.55;8.73;;;;;;;;;;4927397;28;20121;-80
2022/03/28 12:46:19;;;;;;;14.52;9.85;;;;;;;;;;4943666;28;20023;-81
2022/03/28 12:48:46;;;;;;;15.27;8.80;;;;;;;;;;4941181;28;20062;-81
2022/03/28 12:51:13;;;;;;;13.45;8.70;;;;;;;;;;4943122;28;20632;-80
2022/03/28 12:53:40;;;;;;;12.90;8.57;;;;;;;;;;4932843;29;20102;-81
2022/03/28 12:56:13;;;;;;;18.27;8.10;;;;;;;;;;4940963;28;20042;-80
2022/03/28 12:58:40;;;;;;;18.58;7.82;;;;;;;;;;4938240;28;20031;-81
2022/03/28 13:01:08;;;;;;;10.95;8.40;;;;;;;;;;4945168;28;20039;-81
2022/03/28 13:03:35;;;;;;;12.82;7.88;;;;;;;;;;4928746;28;20023;-81
2022/03/28 13:06:05;;;;;;;16.40;8.32;;;;;;;;;;4946003;28;20050;-80
2022/03/28 13:08:35;;;;;;;13.35;7.85;;;;;;;;;;4943075;28;20038;-81
2022/03/28 13:11:21;;;;;;;14.70;7.63;;;;;;;;;;4947659;28;20066;-80
2022/03/28 13:13:47;;;;;;;;;;;;;;;;;;4940489;28;20500;-81
2022/03/28 13:16:21;;;;;;;12.13;8.23;;;;;;;;;;4944876;28;20001;-81
2022/03/28 13:19:02;;;;;;;15.07;7.28;;;;;;;;;;4932354;28;20433;-80
2022/03/28 13:21:37;;;;;;;13.13;8.45;;;;;;;;;;4945138;28;20042;-79
2022/03/28 13:24:13;;;;;;;12.25;8.13;;;;;;;;;;4942023;28;20550;-80
2022/03/28 13:26:41;;;;;;;14.32;8.73;;;;;;;;;;4941412;28;20621;-80
2022/03/28 13:29:16;;;;;;;12.43;8.55;;;;;;;;;;4942530;28;20030;-81
2022/03/28 13:31:42;;;;;;;16.40;9.02;;;;;;;;;;4931380;28;20023;-81
2022/03/28 13:34:09;;;;;;;14.57;8.80;;;;;;;;;;4944428;28;20134;-81
2022/03/28 13:36:35;;;;;;;11.48;8.25;;;;;;;;;;4939461;28;20057;-81
2022/03/28 13:39:01;;;;;;;11.38;7.72;;;;;;;;;;4930086;28;20063;-80
2022/03/28 13:41:27;;;;;;;16.75;8.35;;;;;;;;;;4930497;28;20090;-81
2022/03/28 13:43:53;;;;;;;15.68;7.75;;;;;;;;;;4926957;29;20095;-81
2022/03/28 13:46:20;;;;;;;14.32;8.50;;;;;;;;;;4939200;28;20069;-81
2022/03/28 13:48:47;;;;;;;11.65;8.00;;;;;;;;;;4943664;28;20054;-81
2022/03/28 13:51:13;;;;;;;12.57;7.72;;;;;;;;;;4954328;28;20050;-80
2022/03/28 13:53:39;;;;;;;14.70;9.35;;;;;;;;;;4926551;28;20569;-81
2022/03/28 13:56:09;;;;;;;13.20;8.32;;;;;;;;;;4946086;28;20687;-81
2022/03/28 13:58:36;;;;;;;12.85;7.97;;;;;;;;;;4926670;28;20151;-80
2022/03/28 14:01:04;;;;;;;12.68;8.23;;;;;;;;;;4940433;28;20039;-80
2022/03/28 14:03:30;;;;;;;16.75;8.23;;;;;;;;;;4923631;29;20700;-80
2022/03/28 14:05:56;;;;;;;16.00;8.85;;;;;;;;;;4943865;28;20801;-80
2022/03/28 14:08:22;;;;;;;18.27;9.25;;;;;;;;;;4924289;29;20053;-80
2022/03/28 14:10:49;;;;;;;12.15;8.20;;;;;;;;;;4920793;28;20086;-80
2022/03/28 14:13:15;;;;;;;13.73;8.90;;;;;;;;;;4926673;28;20114;-81
2022/03/28 14:15:42;;;;;;;11.82;7.82;;;;;;;;;;4933223;29;20054;-81
2022/03/28 14:18:09;;;;;;;16.25;8.18;;;;;;;;;;4931250;28;20031;-81
2022/03/28 14:20:36;;;;;;;16.02;8.38;;;;;;;;;;4931953;29;20497;-81
2022/03/28 14:23:02;;;;;;;18.40;8.65;;;;;;;;;;4938633;28;20027;-80
2022/03/28 14:25:28;;;;;;;20.52;9.63;;;;;;;;;;4928197;29;20032;-81
2022/03/28 14:27:54;;;;;;;14.88;8.82;;;;;;;;;;4936211;28;20028;-81
2022/03/28 14:30:20;;;;;;;16.10;9.70;;;;;;;;;;4955533;28;20519;-81
2022/03/28 14:32:46;;;;;;;13.82;8.98;;;;;;;;;;4941627;28;20049;-81
2022/03/28 14:35:13;;;;;;;14.70;9.25;;;;;;;;;;4950692;28;20577;-80
2022/03/28 14:37:39;;;;;;;13.85;8.45;;;;;;;;;;4946923;28;20027;-81
2022/03/28 14:40:06;;;;;;;19.30;9.55;;;;;;;;;;4942434;28;20032;-81